createdAt,value
2018-05-07T00:01:27.252Z,41.10
2018-05-07T00:03:54.717Z,40.90
2018-05-07T00:06:22.154Z,40.70
2018-05-07T00:08:49.604Z,41.20
2018-05-07T00:11:17.040Z,40.80
2018-05-07T00:13:45.264Z,40.80
2018-05-07T00:16:12.703Z,40.80
2018-05-07T00:18:40.149Z,41.10
2018-05-07T00:21:07.588Z,41.40
2018-05-07T00:23:35.028Z,41.10
2018-05-07T00:26:03.245Z,41.40
2018-05-07T00:28:30.700Z,41.40
2018-05-07T00:30:58.151Z,41.30
2018-05-07T00:33:25.599Z,41.50
2018-05-07T00:35:53.041Z,41.80
2018-05-07T00:38:20.483Z,42.00
2018-05-07T00:40:48.691Z,42.60
2018-05-07T00:43:16.143Z,42.60
2018-05-07T00:45:43.589Z,42.80
2018-05-07T00:48:11.058Z,42.90
2018-05-07T00:50:38.498Z,43.10
2018-05-07T00:53:05.954Z,43.10
2018-05-07T00:55:33.389Z,43.20
2018-05-07T00:58:01.604Z,43.40
2018-05-07T01:00:29.048Z,43.40
2018-05-07T01:02:56.503Z,43.50
2018-05-07T01:05:23.942Z,43.40
2018-05-07T01:07:51.396Z,43.40
2018-05-07T01:10:18.866Z,43.20
2018-05-07T01:12:46.400Z,43.10
2018-05-07T01:15:13.770Z,42.90
2018-05-07T01:17:41.225Z,42.90
2018-05-07T01:20:08.670Z,42.90
2018-05-07T01:22:36.120Z,43.00
2018-05-07T01:25:04.358Z,42.90
2018-05-07T01:27:31.792Z,42.90
2018-05-07T01:29:59.254Z,42.70
2018-05-07T01:32:26.702Z,42.90
2018-05-07T01:34:54.151Z,42.80
2018-05-07T01:37:21.607Z,42.80
2018-05-07T01:39:49.075Z,42.80
2018-05-07T01:42:16.499Z,42.90
2018-05-07T01:44:43.959Z,43.10
2018-05-07T01:47:11.397Z,43.20
2018-05-07T01:49:38.844Z,43.40
2018-05-07T01:52:07.065Z,43.40
2018-05-07T01:54:34.524Z,43.40
2018-05-07T01:57:01.963Z,43.50
2018-05-07T01:59:29.419Z,43.60
2018-05-07T02:01:56.853Z,43.70
2018-05-07T02:04:24.302Z,43.80
2018-05-07T02:06:52.525Z,43.90
2018-05-07T02:09:19.975Z,43.90
2018-05-07T02:11:47.412Z,43.80
2018-05-07T02:14:14.851Z,43.70
2018-05-07T02:16:42.292Z,43.70
2018-05-07T02:19:10.507Z,43.70
2018-05-07T02:21:37.946Z,43.70
2018-05-07T02:24:05.390Z,43.80
2018-05-07T02:26:32.843Z,43.60
2018-05-07T02:29:00.284Z,43.70
2018-05-07T02:31:28.580Z,43.60
2018-05-07T02:33:55.940Z,43.60
2018-05-07T02:36:23.383Z,43.60
2018-05-07T02:38:50.885Z,43.60
2018-05-07T02:41:19.049Z,43.70
2018-05-07T02:43:46.481Z,43.70
2018-05-07T02:46:13.931Z,43.80
2018-05-07T02:48:41.369Z,43.60
2018-05-07T02:51:08.813Z,43.80
2018-05-07T02:53:37.012Z,44.00
2018-05-07T02:56:04.465Z,43.90
2018-05-07T02:58:31.904Z,44.00
2018-05-07T03:01:00.116Z,44.20
2018-05-07T03:03:27.553Z,44.20
2018-05-07T03:05:55.016Z,44.40
2018-05-07T03:08:22.437Z,44.40
2018-05-07T03:10:50.654Z,44.30
2018-05-07T03:13:18.085Z,44.30
2018-05-07T03:15:45.534Z,44.40
2018-05-07T03:18:12.970Z,44.50
2018-05-07T03:20:41.188Z,44.40
2018-05-07T03:23:08.619Z,44.40
2018-05-07T03:25:36.068Z,44.50
2018-05-07T03:28:04.272Z,44.60
2018-05-07T03:30:31.712Z,44.60
2018-05-07T03:32:59.159Z,44.80
2018-05-07T03:35:26.803Z,44.80
2018-05-07T03:37:55.009Z,45.00
2018-05-07T03:40:22.459Z,45.00
2018-05-07T03:42:49.907Z,45.00
2018-05-07T03:45:17.349Z,45.20
2018-05-07T03:47:45.570Z,45.30
2018-05-07T03:50:13.832Z,45.30
2018-05-07T03:52:41.283Z,45.50
2018-05-07T03:55:08.738Z,45.70
2018-05-07T03:57:36.197Z,45.90
2018-05-07T04:00:03.627Z,46.10
2018-05-07T04:02:31.068Z,46.40
2018-05-07T04:04:59.329Z,46.90
2018-05-07T04:07:26.854Z,46.80
2018-05-07T04:09:54.225Z,47.00
2018-05-07T04:12:21.677Z,47.20
2018-05-07T04:14:49.875Z,47.60
2018-05-07T04:17:29.913Z,47.70
2018-05-07T04:23:10.694Z,47.90
2018-05-07T04:25:38.273Z,48.00
2018-05-07T04:28:06.485Z,48.20
2018-05-07T04:30:33.933Z,48.20
2018-05-07T04:33:01.381Z,48.10
2018-05-07T04:35:28.829Z,47.80
2018-05-07T04:37:56.277Z,47.80
2018-05-07T04:40:24.499Z,48.00
2018-05-07T04:42:51.937Z,48.00
2018-05-07T04:45:19.391Z,48.10
2018-05-07T04:47:46.828Z,48.20
2018-05-07T04:50:14.263Z,48.30
2018-05-07T04:52:42.478Z,48.60
2018-05-07T04:55:10.013Z,48.60
2018-05-07T04:57:37.386Z,48.80
2018-05-07T05:00:04.844Z,49.00
2018-05-07T05:02:32.291Z,49.20
2018-05-07T05:04:59.755Z,49.30
2018-05-07T05:07:27.210Z,49.50
2018-05-07T05:09:54.660Z,49.80
2018-05-07T05:12:22.128Z,50.00
2018-05-07T05:14:49.571Z,50.20
2018-05-07T05:17:17.032Z,50.30
2018-05-07T05:19:44.468Z,50.50
2018-05-07T05:22:11.929Z,50.60
2018-05-07T05:24:39.373Z,50.70
2018-05-07T05:27:06.830Z,50.80
2018-05-07T05:29:35.445Z,51.10
2018-05-07T05:32:02.897Z,51.10
2018-05-07T05:34:30.337Z,51.20
2018-05-07T05:36:57.796Z,51.30
2018-05-07T05:39:25.253Z,51.50
2018-05-07T05:41:52.717Z,51.50
2018-05-07T05:44:20.169Z,51.60
2018-05-07T05:46:47.613Z,51.70
2018-05-07T05:49:15.450Z,51.80
2018-05-07T05:51:42.885Z,51.90
2018-05-07T05:54:10.324Z,52.00
2018-05-07T05:56:37.777Z,52.10
2018-05-07T05:59:05.230Z,52.20
2018-05-07T06:01:33.532Z,52.30
2018-05-07T06:04:01.001Z,52.40
2018-05-07T06:06:28.440Z,52.60
2018-05-07T06:08:55.965Z,52.60
2018-05-07T06:11:24.132Z,52.70
2018-05-07T06:13:51.583Z,52.70
2018-05-07T06:16:19.044Z,52.80
2018-05-07T06:18:46.513Z,52.80
2018-05-07T06:21:14.049Z,52.80
2018-05-07T06:23:41.416Z,52.80
2018-05-07T06:26:08.860Z,52.90
2018-05-07T06:28:36.315Z,53.00
2018-05-07T06:31:03.783Z,53.00
2018-05-07T06:33:31.247Z,53.00
2018-05-07T06:35:58.649Z,53.00
2018-05-07T06:38:26.870Z,53.00
2018-05-07T06:40:54.311Z,53.10
2018-05-07T06:43:21.761Z,53.10
2018-05-07T06:45:49.232Z,53.10
2018-05-07T06:48:17.405Z,53.30
2018-05-07T06:50:44.849Z,53.30
2018-05-07T06:53:12.301Z,53.40
2018-05-07T06:55:39.733Z,53.50
2018-05-07T06:58:07.197Z,53.50
2018-05-07T07:00:34.658Z,53.60
2018-05-07T07:03:02.190Z,53.60
2018-05-07T07:05:29.552Z,53.50
2018-05-07T07:07:57.814Z,53.40
2018-05-07T07:10:25.218Z,53.40
2018-05-07T07:12:52.653Z,53.50
2018-05-07T07:15:20.126Z,53.50
2018-05-07T07:17:47.589Z,53.40
2018-05-07T07:20:15.033Z,53.50
2018-05-07T07:22:42.482Z,53.40
2018-05-07T07:25:09.925Z,53.50
2018-05-07T07:27:37.387Z,53.40
2018-05-07T07:30:04.832Z,53.30
2018-05-07T07:32:33.048Z,53.00
2018-05-07T07:35:00.494Z,52.90
2018-05-07T07:37:27.933Z,52.70
2018-05-07T07:39:55.378Z,52.60
2018-05-07T07:42:22.816Z,52.60
2018-05-07T07:44:51.057Z,52.30
2018-05-07T07:47:18.545Z,52.30
2018-05-07T07:49:45.962Z,52.20
2018-05-07T07:52:13.410Z,52.20
2018-05-07T07:54:40.855Z,51.80
2018-05-07T07:57:08.301Z,51.60
2018-05-07T07:59:35.765Z,50.10
2018-05-07T08:02:03.215Z,50.70
2018-05-07T08:04:30.659Z,50.70
2018-05-07T08:06:58.106Z,49.70
2018-05-07T08:09:25.544Z,49.00
2018-05-07T08:11:53.804Z,49.20
2018-05-07T08:14:21.250Z,49.20
2018-05-07T08:16:48.706Z,48.20
2018-05-07T08:19:16.576Z,48.60
2018-05-07T08:21:44.018Z,48.60
2018-05-07T08:24:11.464Z,48.40
2018-05-07T08:26:38.929Z,48.10
2018-05-07T08:29:06.381Z,47.20
2018-05-07T08:31:34.793Z,47.30
2018-05-07T08:34:03.015Z,47.40
2018-05-07T08:36:30.486Z,47.40
2018-05-07T08:38:57.916Z,47.30
2018-05-07T08:41:25.473Z,47.00
2018-05-07T08:43:52.828Z,46.20
2018-05-07T08:46:20.265Z,45.00
2018-05-07T08:48:47.714Z,45.50
2018-05-07T08:51:15.923Z,44.80
2018-05-07T08:53:43.681Z,44.80
2018-05-07T08:56:11.143Z,45.00
2018-05-07T08:58:38.580Z,45.10
2018-05-07T09:01:06.025Z,44.90
2018-05-07T09:03:33.468Z,45.10
2018-05-07T09:06:01.697Z,44.30
2018-05-07T09:08:29.144Z,44.20
2018-05-07T09:10:56.592Z,43.50
2018-05-07T09:13:24.046Z,42.60
2018-05-07T09:15:51.497Z,42.90
2018-05-07T09:18:18.942Z,43.10
2018-05-07T09:20:46.392Z,42.50
2018-05-07T09:23:13.833Z,42.50
2018-05-07T09:25:41.281Z,42.70
2018-05-07T09:28:09.490Z,42.60
2018-05-07T09:30:36.967Z,42.50
2018-05-07T09:33:04.417Z,42.80
2018-05-07T09:35:31.874Z,43.00
2018-05-07T09:37:59.324Z,43.00
2018-05-07T09:40:26.777Z,42.20
2018-05-07T09:42:54.230Z,42.50
2018-05-07T09:45:21.685Z,42.40
2018-05-07T09:47:49.130Z,42.30
2018-05-07T09:50:16.591Z,42.20
2018-05-07T09:52:44.035Z,41.80
2018-05-07T09:55:11.491Z,41.00
2018-05-07T09:57:38.949Z,40.70
2018-05-07T10:00:06.404Z,41.10
2018-05-07T10:02:33.924Z,41.20
2018-05-07T10:05:01.327Z,40.70
2018-05-07T10:07:28.766Z,41.00
2018-05-07T10:09:56.211Z,41.00
2018-05-07T10:12:23.657Z,41.20
2018-05-07T10:14:51.878Z,41.20
2018-05-07T10:17:19.326Z,41.20
2018-05-07T10:19:46.781Z,41.10
2018-05-07T10:22:14.250Z,40.50
2018-05-07T10:24:41.689Z,40.90
2018-05-07T10:27:09.136Z,40.90
2018-05-07T10:29:36.600Z,38.80
2018-05-07T10:32:04.058Z,38.70
2018-05-07T10:34:31.506Z,38.30
2018-05-07T10:36:58.949Z,38.10
2018-05-07T10:39:26.397Z,39.20
2018-05-07T10:41:53.857Z,39.30
2018-05-07T10:44:21.307Z,39.10
2018-05-07T10:46:48.808Z,39.30
2018-05-07T10:49:16.697Z,39.30
2018-05-07T10:51:44.133Z,39.40
2018-05-07T10:54:11.581Z,39.00
2018-05-07T10:56:39.802Z,39.80
2018-05-07T10:59:08.013Z,39.40
2018-05-07T11:01:35.485Z,39.40
2018-05-07T11:04:02.916Z,39.80
2018-05-07T11:06:30.370Z,39.20
2018-05-07T11:08:57.826Z,38.70
2018-05-07T11:11:25.276Z,39.20
2018-05-07T11:13:52.723Z,38.90
2018-05-07T11:16:20.176Z,39.40
2018-05-07T11:18:47.617Z,39.20
2018-05-07T11:21:15.828Z,39.60
2018-05-07T11:23:43.270Z,39.60
2018-05-07T11:26:10.741Z,39.80
2018-05-07T11:28:38.187Z,39.50
2018-05-07T11:31:05.673Z,39.10
2018-05-07T11:33:33.102Z,39.30
2018-05-07T11:36:00.554Z,39.10
2018-05-07T11:38:27.992Z,39.40
2018-05-07T11:40:55.448Z,39.60
2018-05-07T11:43:22.893Z,39.90
2018-05-07T11:45:51.110Z,38.90
2018-05-07T11:48:18.561Z,38.90
2018-05-07T11:50:46.116Z,38.70
2018-05-07T11:53:14.354Z,38.80
2018-05-07T11:55:41.737Z,38.80
2018-05-07T11:58:09.199Z,38.80
2018-05-07T12:00:36.696Z,38.90
2018-05-07T12:03:04.136Z,39.20
2018-05-07T12:05:31.602Z,38.30
2018-05-07T12:07:59.070Z,39.10
2018-05-07T12:10:26.493Z,39.50
2018-05-07T12:12:53.951Z,39.00
2018-05-07T12:15:21.391Z,39.20
2018-05-07T12:17:48.844Z,39.50
2018-05-07T12:20:17.277Z,39.50
2018-05-07T12:22:45.501Z,38.70
2018-05-07T12:25:12.962Z,38.70
2018-05-07T12:27:40.415Z,38.60
2018-05-07T12:30:07.859Z,38.80
2018-05-07T12:32:35.324Z,39.20
2018-05-07T12:35:02.763Z,40.10
2018-05-07T12:37:30.215Z,40.30
2018-05-07T12:39:57.652Z,39.90
2018-05-07T12:42:25.102Z,40.00
2018-05-07T12:44:53.317Z,39.80
2018-05-07T12:47:20.768Z,39.80
2018-05-07T12:49:48.222Z,39.90
2018-05-07T12:52:15.674Z,39.40
2018-05-07T12:54:43.112Z,39.90
2018-05-07T12:57:10.567Z,39.70
2018-05-07T12:59:38.008Z,39.70
2018-05-07T13:02:06.212Z,40.10
2018-05-07T13:04:33.659Z,40.10
2018-05-07T13:07:01.115Z,40.30
2018-05-07T13:09:28.578Z,39.70
2018-05-07T13:11:56.022Z,39.20
2018-05-07T13:14:23.462Z,39.70
2018-05-07T13:16:50.931Z,39.80
2018-05-07T13:19:18.364Z,39.40
2018-05-07T13:21:46.579Z,38.80
2018-05-07T13:24:14.022Z,38.80
2018-05-07T13:26:41.959Z,38.70
2018-05-07T13:29:09.354Z,39.10
2018-05-07T13:31:36.821Z,39.70
2018-05-07T13:34:04.260Z,39.60
2018-05-07T13:36:31.715Z,39.80
2018-05-07T13:38:59.173Z,39.10
2018-05-07T13:41:26.611Z,39.30
2018-05-07T13:43:54.082Z,39.30
2018-05-07T13:46:21.530Z,39.50
2018-05-07T13:48:48.983Z,39.40
2018-05-07T13:51:16.424Z,38.90
2018-05-07T13:53:43.877Z,38.90
2018-05-07T13:56:12.077Z,39.30
2018-05-07T13:58:39.533Z,39.30
2018-05-07T14:01:06.989Z,39.60
2018-05-07T14:03:34.452Z,40.10
2018-05-07T14:06:01.888Z,38.70
2018-05-07T14:08:29.345Z,39.00
2018-05-07T14:10:56.776Z,39.40
2018-05-07T14:13:24.997Z,39.50
2018-05-07T14:15:52.452Z,39.50
2018-05-07T14:18:19.902Z,39.70
2018-05-07T14:20:47.349Z,40.60
2018-05-07T14:23:14.792Z,40.20
2018-05-07T14:25:42.260Z,40.40
2018-05-07T14:28:09.704Z,40.00
2018-05-07T14:30:37.155Z,39.60
2018-05-07T14:33:04.605Z,39.40
2018-05-07T14:35:32.086Z,38.40
2018-05-07T14:37:59.517Z,37.70
2018-05-07T14:40:26.958Z,35.60
2018-05-07T14:42:55.169Z,34.50
2018-05-07T14:45:22.614Z,34.40
2018-05-07T14:47:50.063Z,34.00
2018-05-07T14:50:17.937Z,33.70
2018-05-07T14:52:46.135Z,32.60
2018-05-07T14:55:13.577Z,32.60
2018-05-07T14:57:41.030Z,32.60
2018-05-07T15:00:08.729Z,32.90
2018-05-07T15:02:36.165Z,33.10
2018-05-07T15:05:03.624Z,32.60
2018-05-07T15:07:31.827Z,32.70
2018-05-07T15:09:59.281Z,33.30
2018-05-07T15:12:27.500Z,33.90
2018-05-07T15:14:54.954Z,33.80
2018-05-07T15:17:22.398Z,34.60
2018-05-07T15:19:49.861Z,35.10
2018-05-07T15:22:17.301Z,34.80
2018-05-07T15:24:46.614Z,34.50
2018-05-07T15:27:14.058Z,34.90
2018-05-07T15:29:41.505Z,35.50
2018-05-07T15:32:09.711Z,34.20
2018-05-07T15:34:37.204Z,34.20
2018-05-07T15:37:04.644Z,34.60
2018-05-07T15:39:32.105Z,34.60
2018-05-07T15:41:59.557Z,34.30
2018-05-07T15:44:27.014Z,34.30
2018-05-07T15:46:54.465Z,35.00
2018-05-07T15:49:21.915Z,35.00
2018-05-07T15:51:49.359Z,35.40
2018-05-07T15:54:16.808Z,35.40
2018-05-07T15:56:44.279Z,34.90
2018-05-07T15:59:11.767Z,34.90
2018-05-07T16:01:39.216Z,34.00
2018-05-07T16:04:06.751Z,32.80
2018-05-07T16:06:34.224Z,32.50
2018-05-07T16:09:01.673Z,33.30
2018-05-07T16:11:29.120Z,33.90
2018-05-07T16:13:56.584Z,34.10
2018-05-07T16:16:24.046Z,33.90
2018-05-07T16:18:51.471Z,34.50
2018-05-07T16:21:18.962Z,34.40
2018-05-07T16:23:46.374Z,35.20
2018-05-07T16:26:14.610Z,35.60
2018-05-07T16:28:42.808Z,34.60
2018-05-07T16:31:10.316Z,34.50
2018-05-07T16:33:37.701Z,35.10
2018-05-07T16:36:05.917Z,35.70
2018-05-07T16:38:33.419Z,35.70
2018-05-07T16:41:00.823Z,35.90
2018-05-07T16:43:28.291Z,36.20
2018-05-07T16:45:55.738Z,36.50
2018-05-07T16:48:23.182Z,36.60
2018-05-07T16:50:50.637Z,36.80
2018-05-07T16:53:18.096Z,37.00
2018-05-07T16:55:45.593Z,37.20
2018-05-07T16:58:14.558Z,37.80
2018-05-07T17:00:42.225Z,37.40
2018-05-07T17:03:09.767Z,37.50
2018-05-07T17:05:37.233Z,37.60
2018-05-07T17:08:04.685Z,37.70
2018-05-07T17:10:32.149Z,37.90
2018-05-07T17:12:59.591Z,38.00
2018-05-07T17:15:27.057Z,38.20
2018-05-07T17:17:54.525Z,38.20
2018-05-07T17:20:21.980Z,38.50
2018-05-07T17:22:49.463Z,38.20
2018-05-07T17:25:17.678Z,38.50
2018-05-07T17:27:45.130Z,38.50
2018-05-07T17:30:12.590Z,38.60
2018-05-07T17:32:40.041Z,38.80
2018-05-07T17:35:07.504Z,38.90
2018-05-07T17:37:34.958Z,39.00
2018-05-07T17:40:02.413Z,39.20
2018-05-07T17:42:29.864Z,39.40
2018-05-07T17:45:09.249Z,39.10
2018-05-07T17:47:48.970Z,39.60
2018-05-07T17:50:16.416Z,39.70
2018-05-07T17:52:43.869Z,39.70
2018-05-07T17:55:11.345Z,39.90
2018-05-07T17:57:38.789Z,40.00
2018-05-07T18:00:06.233Z,40.00
2018-05-07T18:02:33.695Z,40.10
2018-05-07T18:05:01.267Z,40.10
2018-05-07T18:07:28.603Z,40.20
2018-05-07T18:09:56.045Z,40.30
2018-05-07T18:12:23.492Z,40.40
2018-05-07T18:14:51.080Z,40.50
2018-05-07T18:17:18.394Z,40.70
2018-05-07T18:19:45.843Z,40.70
2018-05-07T18:22:13.302Z,40.50
2018-05-07T18:24:40.838Z,40.70
2018-05-07T18:27:08.296Z,40.80
2018-05-07T18:29:36.503Z,41.40
2018-05-07T18:32:04.032Z,40.80
2018-05-07T18:34:32.253Z,41.40
2018-05-07T18:36:59.719Z,41.40
2018-05-07T18:39:27.167Z,41.90
2018-05-07T18:41:54.618Z,41.90
2018-05-07T18:44:22.064Z,42.10
2018-05-07T18:46:49.529Z,42.20
2018-05-07T18:49:17.201Z,42.40
2018-05-07T18:51:44.657Z,42.50
2018-05-07T18:54:12.176Z,42.70
2018-05-07T18:56:39.886Z,42.90
2018-05-07T18:59:07.330Z,43.20
2018-05-07T19:01:35.177Z,43.40
2018-05-07T19:04:02.696Z,43.50
2018-05-07T19:06:30.933Z,43.70
2018-05-07T19:08:58.388Z,43.60
2018-05-07T19:11:25.838Z,43.90
2018-05-07T19:13:53.477Z,44.00
2018-05-07T19:16:20.949Z,44.30
2018-05-07T19:18:48.409Z,44.50
2018-05-07T19:21:15.853Z,44.70
2018-05-07T19:23:43.306Z,44.80
2018-05-07T19:26:10.753Z,44.90
2018-05-07T19:28:38.242Z,44.60
2018-05-07T19:31:05.733Z,45.00
2018-05-07T19:33:33.950Z,44.30
2018-05-07T19:36:01.458Z,44.20
2018-05-07T19:38:28.849Z,44.10
2018-05-07T19:40:56.290Z,43.80
2018-05-07T19:43:23.741Z,43.10
2018-05-07T19:45:51.181Z,43.10
2018-05-07T19:48:19.408Z,42.90
2018-05-07T19:50:46.860Z,42.90
2018-05-07T19:53:14.315Z,42.90
2018-05-07T19:55:41.836Z,42.70
2018-05-07T19:58:09.230Z,42.60
2018-05-07T20:00:36.779Z,42.70
2018-05-07T20:03:04.233Z,42.70
2018-05-07T20:05:31.691Z,42.60
2018-05-07T20:07:59.150Z,42.70
2018-05-07T20:10:26.614Z,42.60
2018-05-07T20:12:54.053Z,42.50
2018-05-07T20:15:21.499Z,42.80
2018-05-07T20:17:48.976Z,41.80
2018-05-07T20:20:16.400Z,41.70
2018-05-07T20:22:43.866Z,41.70
2018-05-07T20:25:11.324Z,41.10
2018-05-07T20:27:38.766Z,41.50
2018-05-07T20:30:06.219Z,41.70
2018-05-07T20:32:33.797Z,41.60
2018-05-07T20:35:01.279Z,41.60
2018-05-07T20:37:28.777Z,41.60
2018-05-07T20:39:56.201Z,41.70
2018-05-07T20:42:23.653Z,41.80
2018-05-07T20:44:51.114Z,41.60
2018-05-07T20:47:18.563Z,41.70
2018-05-07T20:49:46.017Z,41.80
2018-05-07T20:52:13.470Z,41.70
2018-05-07T20:54:40.934Z,41.80
2018-05-07T20:57:08.382Z,41.90
2018-05-07T20:59:35.846Z,41.80
2018-05-07T21:02:03.294Z,41.90
2018-05-07T21:04:30.749Z,41.80
2018-05-07T21:06:58.208Z,41.60
2018-05-07T21:09:25.675Z,41.60
2018-05-07T21:11:53.113Z,41.80
2018-05-07T21:14:20.570Z,42.10
2018-05-07T21:16:48.032Z,42.20
2018-05-07T21:19:15.756Z,42.40
2018-05-07T21:21:43.180Z,42.20
2018-05-07T21:24:11.418Z,42.60
2018-05-07T21:26:39.631Z,42.60
2018-05-07T21:29:07.846Z,42.90
2018-05-07T21:31:35.295Z,42.90
2018-05-07T21:34:02.761Z,43.00
2018-05-07T21:36:30.287Z,43.30
2018-05-07T21:38:57.665Z,43.40
2018-05-07T21:41:25.119Z,43.50
2018-05-07T21:43:52.583Z,43.70
2018-05-07T21:46:20.032Z,43.80
2018-05-07T21:48:47.489Z,43.90
2018-05-07T21:51:14.943Z,44.00
2018-05-07T21:53:43.158Z,44.70
2018-05-07T21:56:11.376Z,44.70
2018-05-07T21:58:39.144Z,44.20
2018-05-07T22:01:06.595Z,44.20
2018-05-07T22:03:34.061Z,44.00
2018-05-07T22:06:01.516Z,43.70
2018-05-07T22:08:28.961Z,43.70
2018-05-07T22:10:56.427Z,43.50
2018-05-07T22:13:23.872Z,43.40
2018-05-07T22:15:51.330Z,43.40
2018-05-07T22:18:18.783Z,43.50
2018-05-07T22:20:46.234Z,43.50
2018-05-07T22:23:13.688Z,43.30
2018-05-07T22:25:41.136Z,42.90
2018-05-07T22:28:08.578Z,42.70
2018-05-07T22:30:36.801Z,42.60
2018-05-07T22:33:04.250Z,42.60
2018-05-07T22:35:31.705Z,42.30
2018-05-07T22:37:59.145Z,42.50
2018-05-07T22:40:26.601Z,42.60
2018-05-07T22:42:54.058Z,43.00
2018-05-07T22:45:21.511Z,42.40
2018-05-07T22:47:48.957Z,42.40
2018-05-07T22:50:16.426Z,42.40
2018-05-07T22:52:43.872Z,42.40
2018-05-07T22:55:20.245Z,42.40
2018-05-07T22:57:47.690Z,42.50
2018-05-07T23:00:15.924Z,42.50
2018-05-07T23:02:43.369Z,42.50
2018-05-07T23:05:10.818Z,42.40
2018-05-07T23:07:38.270Z,42.00
2018-05-07T23:10:05.727Z,42.70
2018-05-07T23:12:33.169Z,42.30
2018-05-07T23:15:00.620Z,42.30
2018-05-07T23:17:28.073Z,42.40
2018-05-07T23:19:55.532Z,42.50
2018-05-07T23:22:22.973Z,42.40
2018-05-07T23:24:50.424Z,42.40
2018-05-07T23:27:17.877Z,42.60
2018-05-07T23:29:45.313Z,42.60
2018-05-07T23:32:12.775Z,42.70
2018-05-07T23:34:40.211Z,42.80
2018-05-07T23:37:08.432Z,43.00
2018-05-07T23:39:35.878Z,43.60
2018-05-07T23:42:03.338Z,43.20
2018-05-07T23:44:30.776Z,43.20
2018-05-07T23:46:58.232Z,43.50
2018-05-07T23:49:26.443Z,43.90
2018-05-07T23:51:53.894Z,43.80
2018-05-07T23:54:21.334Z,44.00
2018-05-07T23:56:48.780Z,44.20
2018-05-07T23:59:16.226Z,44.20
